Terminal Aerodrome Forecast
Issued by NWS Wilmington, NC

Home | Current Version | Previous Version | Text Only | Print | Product List | Glossary On
Versions: 1 2 3 4 5 6 7 8 9 10 11 12 13 14 15 16 17 18 19 20 21
000
FTUS42 KILM 011200 CCB
TAFLBT
TAF COR
KLBT 011201Z 0112/0212 VRB02KT P6SM SCT002 SCT120
      TEMPO 0112/0113 3/4SM BR BKN002
     FM011400 26004KT P6SM SCT020
     FM012000 20008KT P6SM VCSH BKN035
     FM020200 19005KT P6SM FEW050
      TEMPO 0208/0212 3SM BR SCT009=

USA.gov is the U.S. government's official web portal to all federal, state and local government web resources and services.